Tuesday, January 23, 2018, 11:54 PM GMT
Back to Local

CYQI, Yarmouth, N. S.

Location: , , Canada Lat: 43.833
Local Time: 11:54 PM GMT (23:54 GMT) Lon: -66.083
Time Zone: GMT Elev: 141 ft

Show me the last for .
Show Decoded

2018-01-23 23:29 METAR CYQI 232329Z 17020G29KT 3SM -RA BR OVC004 09/09 A2967 RMK SF8 SLP050 =
2018-01-23 23:00 METAR CYQI 232300Z 17021G27KT 3SM RA BR BKN004 OVC025 09/09 A2969 RMK SF7NS1
                 PRESFR SLP056 =
2018-01-23 22:51 METAR CYQI 232251Z 17019G26KT 6SM -RA BR BKN005 OVC026 09/09 A2970 RMK SF6NS2
                 SLP060 =
2018-01-23 22:00 METAR CYQI 232200Z 17021G31KT 6SM -RA BR BKN006 OVC035 09/08 A2973 RMK SF5SC3
                 SLP072 =
2018-01-23 21:48 METAR CYQI 232148Z 17017G25KT 6SM -RA BR BKN008 OVC035 09/08 A2974 RMK SF5SC3
                 PRESFR SLP073 =
2018-01-23 21:21 METAR CYQI 232121Z 17019G28KT 7SM -RA FEW006 BKN038 OVC090 09/08 A2976 RMK
                 SF2SC3AS3 PRESFR SLP082 =
2018-01-23 21:00 METAR CYQI 232100Z 17018G28KT 7SM SCT004 BKN035 OVC052 09/09 A2979 RMK SF3SC4NS1
                 PRESFR SLP089 =
2018-01-23 20:52 METAR CYQI 232052Z 17017G25KT 6SM BR BKN004 OVC036 09/09 A2979 RMK SF5SC3 SLP092
                 =
2018-01-23 20:00 METAR CYQI 232000Z 16018G27KT 5SM BR BKN003 OVC032 09/09 A2983 RMK SF7NS1 SLP103
                 =
2018-01-23 19:50 METAR CYQI 231950Z 17016G25KT 5SM BR BKN002 OVC034 08/08 A2983 RMK SF7NS1 PRESFR
                 SLP105 =
2018-01-23 19:37 METAR CYQI 231937Z 17015G23KT 3SM -RA BR OVC002 08/08 A2985 RMK ST8 SLP110 =
2018-01-23 19:06 METAR CYQI 231906Z 17016G25KT 1 1/2SM -RA BR OVC001 08/08 A2987 RMK ST8 VIS VRB
                 3/4-21/4 SLP118 =
2018-01-23 19:00 METAR CYQI 231900Z 17016G23KT 3/4SM BR VV002 08/08 A2987 RMK FG8 INTMT -RA
                 SLP120 =
2018-01-23 18:43 METAR CYQI 231843Z 17014G26KT 3/4SM -RA BR VV002 08/08 A2988 RMK FG8 SLP123 =
2018-01-23 18:37 METAR CYQI 231837Z 17017G26KT 1SM -RA BR OVC001 09/08 A2988 RMK ST8 PRESFR
                 SLP123 =
2018-01-23 18:21 METAR CYQI 231821Z 17017G27KT 1 1/2SM -RA BR OVC001 08/08 A2990 RMK ST8 SLP128 =
2018-01-23 18:14 METAR CYQI 231814Z 17019G27KT 3/4SM -RA BR OVC001 08/08 A2990 RMK FG2ST6 SLP130
                 =
2018-01-23 18:00 METAR CYQI 231800Z 17017G28KT 1/2SM -RA FG VV002 08/08 A2991 RMK FG8 PRESFR
                 SLP133 =
2018-01-23 17:47 METAR CYQI 231747Z 16016G25KT 1/2SM -RA FG VV002 08/08 A2992 RMK FG8 PRESFR
                 SLP137 =
2018-01-23 17:40 METAR CYQI 231740Z 16014G19KT 1/4SM -RA FG VV002 08/08 A2993 RMK FG8 PRESFR
                 SLP140 =
2018-01-23 17:00 METAR CYQI 231700Z 10008KT 1/8SM FG VV002 05/04 A2998 RMK FG8 PRESFR SLP156 =
2018-01-23 16:00 METAR CYQI 231600Z 12007G15KT 060V150 1/4SM FG VV002 03/03 A3005 RMK FG8 PRESFR
                 SLP178 =
2018-01-23 15:38 METAR CYQI 231538Z 10009KT 3/8SM FG VV002 03/03 A3007 RMK FG8 SLP187 =
2018-01-23 15:36 METAR CYQI 231536Z 11010KT 1/2SM FG OVC001 03/03 A3007 RMK FG4ST4 SLP187 =
2018-01-23 15:33 METAR CYQI 231533Z 09012KT 3/4SM BR OVC002 03/03 A3007 RMK FG2ST6 SLP187 =
2018-01-23 15:28 METAR CYQI 231528Z 11010KT 1SM BR OVC002 03/02 A3007 RMK ST8 PRESFR SLP186 =
2018-01-23 15:26 METAR CYQI 231526Z 09010KT 1 1/2SM BR OVC002 03/02 A3008 RMK ST8 SLP188 =
2018-01-23 15:20 METAR CYQI 231520Z 11008KT 2SM BR OVC002 03/02 A3008 RMK ST8 PRESFR SLP189 =
2018-01-23 15:13 METAR CYQI 231513Z 10009G15KT 3SM BR OVC003 02/02 A3009 RMK ST8 PRESFR SLP191 =
2018-01-23 15:00 METAR CYQI 231500Z 11010KT 10SM OVC004 02/02 A3011 RMK ST8 SLP198 =
2018-01-23 14:24 METAR CYQI 231424Z 10011G16KT 10SM OVC004 01/01 A3011 RMK ST8 SLP202 =
2018-01-23 14:00 METAR CYQI 231400Z 11012G17KT 9SM -RA OVC004 01/01 A3012 RMK ST8 PRESFR SLP203 =
2018-01-23 13:06 METAR CYQI 231306Z 11014KT 3SM -RA BR OVC004 01/00 A3014 RMK SF8 PRESFR SLP208 =
2018-01-23 13:00 METAR CYQI 231300Z 11012KT 2 1/2SM -RA BR OVC004 01/00 A3014 RMK ST8 SLP211 =
2018-01-23 12:36 METAR CYQI 231236Z 11012KT 2 1/2SM -RA BR OVC004 00/M00 A3015 RMK ST8 SLP214 =
2018-01-23 12:17 METAR CYQI 231217Z 11013KT 2SM -RA BR OVC005 00/M00 A3017 RMK SF8 SLP219 =
2018-01-23 12:00 METAR CYQI 231200Z 11011G16KT 9SM -FZRA OVC005 00/M00 A3017 RMK SF8 SLP221 =
2018-01-23 11:00 METAR CYQI 231100Z 11011G17KT 9SM -FZRA BR OVC005 M01/M01 A3019 RMK SF8 SLP228 =
2018-01-23 10:28 METAR CYQI 231028Z 11011G20KT 4SM -FZDZ BR OVC005 M01/M02 A3020 RMK SF8 SLP231 =
2018-01-23 10:00 METAR CYQI 231000Z 11012G20KT 4SM -FZRA BR OVC006 M01/M02 A3021 RMK SF8 SLP233 =
2018-01-23 09:00 METAR CYQI 230900Z 11014KT 4SM -FZRA BR OVC016 M02/M03 A3022 RMK SC8 SLP237 =
2018-01-23 08:00 METAR CYQI 230800Z 10012G20KT 5SM -FZRA BR OVC020 M02/M07 A3026 RMK SC8 PRESFR
                 SLP250 =
2018-01-23 07:42 METAR CYQI 230742Z 11012KT 9SM -FZRA OVC025 M02/M08 A3028 RMK SC8 SLP257 =
2018-01-23 07:00 METAR CYQI 230700Z 10011KT 15SM OVC027 M03/M09 A3027 RMK SC8 SLP254 =
2018-01-23 06:00 METAR CYQI 230600Z 10009KT 15SM OVC030 M03/M10 A3030 RMK SC8 SLP264 =
2018-01-23 05:00 METAR CYQI 230500Z 12010KT 15SM OVC031 M03/M11 A3031 RMK SC8 SLP269 =
2018-01-23 04:00 METAR CYQI 230400Z 11010KT 15SM BKN050 OVC130 M04/M12 A3033 RMK SC5AC3 SLP274 =
2018-01-23 03:00 METAR CYQI 230300Z 11010KT 15SM SCT045 OVC070 M04/M12 A3035 RMK SC3AC5 PRESFR
                 SLP282 =
2018-01-23 02:00 METAR CYQI 230200Z 11008KT 15SM OVC030 M03/M12 A3039 RMK SC8 SLP295 =
2018-01-23 01:00 METAR CYQI 230100Z 10005KT 15SM OVC040 M04/M13 A3041 RMK SC8 SLP301 =
2018-01-23 00:00 METAR CYQI 230000Z 11004KT 15SM OVC039 M04/M13 A3041 RMK SC8 SLP303 =

Support USWX by starting your Amazon purchase here.